Ana Sayfa
METAR-TAF:

METAR-TAF

Havaalanları :

Mora–Siljan

Mora, İsveç

Enlem: 60-57-31N, Boylam: 14-30-40E, yükseklik: 193 m

Güncel hava durumu gözlemi

Rapor saat 18:50 UTC de 32 dakika önce yapıldı.
Rüzgar değişken yönden 2 kt
Sıcaklık -4°C
Nem 80%
Basınç 1000 hPa
Görüş mesafesi 10 km veya daha fazla

METAR: ESKM 241850Z AUTO VRB02KT 9999 NCD M04/M07 Q1000

Saat: 20:22 (19:22 UTC)


TAF: eksik

4.000'den fazla havaalanı için hava durumu gözlemleri ve tahminleri (METAR ve TAF raporları).

Kullanılabilir istasyonlar harita üzerinde sarı ve kırmızı noktalarla gösterilir.

İstasyonun adını görmek için fareyi noktanın üzerinde gezdirin.

Sonrasında hava gözlem ve tahminlerini görmek için tıklayın.

Haritayı değiştirmek için: yaklaştırmak için siyah artı işaretli yeşil düğmeye ve uzaklaştırmak için de eksi işaretli düğmeye hızla tıklayın; bitişik haritalar için yeşil okları kullanın.


METAR-TAF: